sensor_id;sensor_type;location;lat;lon;timestamp;P1;durP1;ratioP1;P2;durP2;ratioP2
52458;SDS011;38372;52.902;6.024;2022-08-05T00:01:14;9.35;;;4.47;;
52458;SDS011;38372;52.902;6.024;2022-08-05T00:03:47;6.28;;;3.75;;
52458;SDS011;38372;52.902;6.024;2022-08-05T00:06:14;6.85;;;4.78;;
52458;SDS011;38372;52.902;6.024;2022-08-05T00:08:41;7.50;;;4.32;;
52458;SDS011;38372;52.902;6.024;2022-08-05T00:11:11;7.65;;;4.35;;
52458;SDS011;38372;52.902;6.024;2022-08-05T00:13:40;9.45;;;3.88;;
52458;SDS011;38372;52.902;6.024;2022-08-05T00:16:08;6.80;;;4.20;;
52458;SDS011;38372;52.902;6.024;2022-08-05T00:18:39;10.77;;;4.43;;
52458;SDS011;38372;52.902;6.024;2022-08-05T00:21:10;9.80;;;4.05;;
52458;SDS011;38372;52.902;6.024;2022-08-05T00:23:37;10.20;;;4.55;;
52458;SDS011;38372;52.902;6.024;2022-08-05T00:26:04;7.07;;;4.13;;
52458;SDS011;38372;52.902;6.024;2022-08-05T00:28:30;9.73;;;4.00;;
52458;SDS011;38372;52.902;6.024;2022-08-05T00:30:57;9.13;;;4.72;;
52458;SDS011;38372;52.902;6.024;2022-08-05T00:33:23;10.65;;;4.45;;
52458;SDS011;38372;52.902;6.024;2022-08-05T00:35:49;6.57;;;4.00;;
52458;SDS011;38372;52.902;6.024;2022-08-05T00:38:15;8.02;;;4.13;;
52458;SDS011;38372;52.902;6.024;2022-08-05T00:43:14;6.88;;;4.07;;
52458;SDS011;38372;52.902;6.024;2022-08-05T00:45:40;10.90;;;4.70;;
52458;SDS011;38372;52.902;6.024;2022-08-05T00:48:08;7.65;;;4.28;;
52458;SDS011;38372;52.902;6.024;2022-08-05T00:50:37;8.68;;;4.20;;
52458;SDS011;38372;52.902;6.024;2022-08-05T00:53:04;5.43;;;3.58;;
52458;SDS011;38372;52.902;6.024;2022-08-05T00:55:30;7.47;;;3.60;;
52458;SDS011;38372;52.902;6.024;2022-08-05T00:57:56;6.82;;;3.88;;
52458;SDS011;38372;52.902;6.024;2022-08-05T01:00:22;7.07;;;4.05;;
52458;SDS011;38372;52.902;6.024;2022-08-05T01:02:48;6.43;;;4.13;;
52458;SDS011;38372;52.902;6.024;2022-08-05T01:05:14;6.85;;;4.75;;
52458;SDS011;38372;52.902;6.024;2022-08-05T01:07:43;8.20;;;4.28;;
52458;SDS011;38372;52.902;6.024;2022-08-05T01:10:09;8.73;;;4.35;;
52458;SDS011;38372;52.902;6.024;2022-08-05T01:12:39;9.67;;;4.60;;
52458;SDS011;38372;52.902;6.024;2022-08-05T01:15:10;9.68;;;4.63;;
52458;SDS011;38372;52.902;6.024;2022-08-05T01:17:39;11.07;;;4.03;;
52458;SDS011;38372;52.902;6.024;2022-08-05T01:31:11;6.53;;;3.47;;
52458;SDS011;38372;52.902;6.024;2022-08-05T01:34:01;6.82;;;3.90;;
52458;SDS011;38372;52.902;6.024;2022-08-05T01:36:33;7.65;;;4.05;;
52458;SDS011;38372;52.902;6.024;2022-08-05T01:39:02;7.63;;;3.90;;
52458;SDS011;38372;52.902;6.024;2022-08-05T01:41:30;8.48;;;4.00;;
52458;SDS011;38372;52.902;6.024;2022-08-05T01:43:58;12.38;;;4.50;;
52458;SDS011;38372;52.902;6.024;2022-08-05T01:46:26;6.63;;;4.15;;
52458;SDS011;38372;52.902;6.024;2022-08-05T01:48:54;8.52;;;4.75;;
52458;SDS011;38372;52.902;6.024;2022-08-05T01:51:23;6.45;;;3.70;;
52458;SDS011;38372;52.902;6.024;2022-08-05T01:53:49;5.63;;;3.90;;
52458;SDS011;38372;52.902;6.024;2022-08-05T01:56:17;10.90;;;5.35;;
52458;SDS011;38372;52.902;6.024;2022-08-05T01:58:44;5.32;;;3.40;;
52458;SDS011;38372;52.902;6.024;2022-08-05T02:01:12;8.05;;;4.35;;
52458;SDS011;38372;52.902;6.024;2022-08-05T02:03:43;8.45;;;4.43;;
52458;SDS011;38372;52.902;6.024;2022-08-05T02:06:10;8.60;;;4.40;;
52458;SDS011;38372;52.902;6.024;2022-08-05T02:08:37;8.18;;;4.32;;
52458;SDS011;38372;52.902;6.024;2022-08-05T02:11:05;8.32;;;4.50;;
52458;SDS011;38372;52.902;6.024;2022-08-05T02:13:40;7.45;;;4.03;;
52458;SDS011;38372;52.902;6.024;2022-08-05T02:16:09;8.95;;;4.40;;
52458;SDS011;38372;52.902;6.024;2022-08-05T02:18:46;7.00;;;4.00;;
52458;SDS011;38372;52.902;6.024;2022-08-05T02:21:17;6.70;;;3.90;;
52458;SDS011;38372;52.902;6.024;2022-08-05T02:23:49;5.75;;;3.92;;
52458;SDS011;38372;52.902;6.024;2022-08-05T02:26:23;8.80;;;4.05;;
52458;SDS011;38372;52.902;6.024;2022-08-05T02:28:55;5.95;;;3.90;;
52458;SDS011;38372;52.902;6.024;2022-08-05T02:31:22;6.70;;;3.70;;
52458;SDS011;38372;52.902;6.024;2022-08-05T02:34:28;12.27;;;3.97;;
52458;SDS011;38372;52.902;6.024;2022-08-05T02:36:53;6.43;;;3.85;;
52458;SDS011;38372;52.902;6.024;2022-08-05T02:39:22;6.38;;;3.40;;
52458;SDS011;38372;52.902;6.024;2022-08-05T02:41:51;8.45;;;4.50;;
52458;SDS011;38372;52.902;6.024;2022-08-05T02:44:20;6.07;;;3.78;;
52458;SDS011;38372;52.902;6.024;2022-08-05T02:46:49;7.82;;;4.60;;
52458;SDS011;38372;52.902;6.024;2022-08-05T02:49:18;7.72;;;4.30;;
52458;SDS011;38372;52.902;6.024;2022-08-05T02:51:45;8.90;;;4.35;;
52458;SDS011;38372;52.902;6.024;2022-08-05T02:54:12;7.10;;;3.70;;
52458;SDS011;38372;52.902;6.024;2022-08-05T02:56:40;9.63;;;4.32;;
52458;SDS011;38372;52.902;6.024;2022-08-05T02:59:09;5.57;;;3.90;;
52458;SDS011;38372;52.902;6.024;2022-08-05T03:01:36;7.20;;;3.90;;
52458;SDS011;38372;52.902;6.024;2022-08-05T03:04:08;8.45;;;3.92;;
52458;SDS011;38372;52.902;6.024;2022-08-05T03:06:37;8.23;;;3.95;;
52458;SDS011;38372;52.902;6.024;2022-08-05T03:09:04;7.65;;;4.20;;
52458;SDS011;38372;52.902;6.024;2022-08-05T03:11:31;8.98;;;4.40;;
52458;SDS011;38372;52.902;6.024;2022-08-05T03:13:58;6.80;;;4.15;;
52458;SDS011;38372;52.902;6.024;2022-08-05T03:16:24;7.35;;;3.92;;
52458;SDS011;38372;52.902;6.024;2022-08-05T03:18:50;9.63;;;3.97;;
52458;SDS011;38372;52.902;6.024;2022-08-05T03:21:16;9.50;;;4.70;;
52458;SDS011;38372;52.902;6.024;2022-08-05T03:23:42;10.05;;;4.80;;
52458;SDS011;38372;52.902;6.024;2022-08-05T03:26:08;6.75;;;3.90;;
52458;SDS011;38372;52.902;6.024;2022-08-05T03:28:35;8.80;;;4.82;;
52458;SDS011;38372;52.902;6.024;2022-08-05T03:31:02;8.68;;;4.30;;
52458;SDS011;38372;52.902;6.024;2022-08-05T03:33:29;8.32;;;4.32;;
52458;SDS011;38372;52.902;6.024;2022-08-05T03:35:56;7.88;;;4.53;;
52458;SDS011;38372;52.902;6.024;2022-08-05T03:38:26;8.95;;;4.43;;
52458;SDS011;38372;52.902;6.024;2022-08-05T03:40:52;9.32;;;4.97;;
52458;SDS011;38372;52.902;6.024;2022-08-05T03:43:18;9.60;;;4.93;;
52458;SDS011;38372;52.902;6.024;2022-08-05T03:45:44;8.70;;;5.20;;
52458;SDS011;38372;52.902;6.024;2022-08-05T03:48:11;9.73;;;4.85;;
52458;SDS011;38372;52.902;6.024;2022-08-05T03:53:33;9.68;;;5.07;;
52458;SDS011;38372;52.902;6.024;2022-08-05T03:56:27;8.70;;;5.40;;
52458;SDS011;38372;52.902;6.024;2022-08-05T03:58:52;11.45;;;6.13;;
52458;SDS011;38372;52.902;6.024;2022-08-05T04:01:21;9.57;;;5.77;;
52458;SDS011;38372;52.902;6.024;2022-08-05T04:03:49;7.30;;;6.22;;
52458;SDS011;38372;52.902;6.024;2022-08-05T04:06:17;8.38;;;6.35;;
52458;SDS011;38372;52.902;6.024;2022-08-05T04:08:44;9.88;;;5.85;;
52458;SDS011;38372;52.902;6.024;2022-08-05T04:11:11;9.50;;;4.95;;
52458;SDS011;38372;52.902;6.024;2022-08-05T04:13:40;8.75;;;5.72;;
52458;SDS011;38372;52.902;6.024;2022-08-05T04:16:10;8.85;;;5.38;;
52458;SDS011;38372;52.902;6.024;2022-08-05T04:18:37;7.40;;;5.68;;
52458;SDS011;38372;52.902;6.024;2022-08-05T04:21:04;8.68;;;6.15;;
52458;SDS011;38372;52.902;6.024;2022-08-05T04:23:31;10.43;;;6.38;;
52458;SDS011;38372;52.902;6.024;2022-08-05T04:26:00;10.60;;;5.95;;
52458;SDS011;38372;52.902;6.024;2022-08-05T04:28:26;8.20;;;6.32;;
52458;SDS011;38372;52.902;6.024;2022-08-05T04:30:52;9.10;;;6.10;;
52458;SDS011;38372;52.902;6.024;2022-08-05T04:33:17;8.93;;;5.07;;
52458;SDS011;38372;52.902;6.024;2022-08-05T04:35:43;7.65;;;5.43;;
52458;SDS011;38372;52.902;6.024;2022-08-05T04:38:09;6.82;;;4.80;;
52458;SDS011;38372;52.902;6.024;2022-08-05T04:40:36;6.28;;;5.07;;
52458;SDS011;38372;52.902;6.024;2022-08-05T04:43:03;7.28;;;5.53;;
52458;SDS011;38372;52.902;6.024;2022-08-05T04:45:30;10.35;;;5.57;;
52458;SDS011;38372;52.902;6.024;2022-08-05T04:48:09;6.85;;;4.97;;
52458;SDS011;38372;52.902;6.024;2022-08-05T04:50:39;10.43;;;5.50;;
52458;SDS011;38372;52.902;6.024;2022-08-05T04:53:07;7.93;;;5.10;;
52458;SDS011;38372;52.902;6.024;2022-08-05T04:55:34;7.60;;;4.75;;
52458;SDS011;38372;52.902;6.024;2022-08-05T04:58:01;7.68;;;5.35;;
52458;SDS011;38372;52.902;6.024;2022-08-05T05:00:30;7.47;;;4.88;;
52458;SDS011;38372;52.902;6.024;2022-08-05T05:02:58;8.15;;;4.80;;
52458;SDS011;38372;52.902;6.024;2022-08-05T05:05:24;7.15;;;4.57;;
52458;SDS011;38372;52.902;6.024;2022-08-05T05:07:50;7.22;;;4.97;;
52458;SDS011;38372;52.902;6.024;2022-08-05T05:10:16;4.88;;;4.30;;
52458;SDS011;38372;52.902;6.024;2022-08-05T05:12:42;8.07;;;5.28;;
52458;SDS011;38372;52.902;6.024;2022-08-05T05:15:08;5.75;;;4.60;;
52458;SDS011;38372;52.902;6.024;2022-08-05T05:17:38;5.18;;;4.68;;
52458;SDS011;38372;52.902;6.024;2022-08-05T05:20:05;6.35;;;4.90;;
52458;SDS011;38372;52.902;6.024;2022-08-05T05:22:32;7.50;;;4.45;;
52458;SDS011;38372;52.902;6.024;2022-08-05T05:24:59;7.32;;;5.15;;
52458;SDS011;38372;52.902;6.024;2022-08-05T05:27:31;6.82;;;5.47;;
52458;SDS011;38372;52.902;6.024;2022-08-05T05:29:58;11.60;;;6.70;;
52458;SDS011;38372;52.902;6.024;2022-08-05T05:32:24;10.95;;;6.65;;
52458;SDS011;38372;52.902;6.024;2022-08-05T05:34:50;8.80;;;6.35;;
52458;SDS011;38372;52.902;6.024;2022-08-05T05:37:16;7.00;;;5.20;;
52458;SDS011;38372;52.902;6.024;2022-08-05T05:39:42;7.82;;;4.95;;
52458;SDS011;38372;52.902;6.024;2022-08-05T05:42:08;7.40;;;5.20;;
52458;SDS011;38372;52.902;6.024;2022-08-05T05:44:34;6.57;;;4.55;;
52458;SDS011;38372;52.902;6.024;2022-08-05T05:47:00;9.27;;;5.32;;
52458;SDS011;38372;52.902;6.024;2022-08-05T05:49:26;7.40;;;4.78;;
52458;SDS011;38372;52.902;6.024;2022-08-05T05:51:53;6.80;;;4.93;;
52458;SDS011;38372;52.902;6.024;2022-08-05T05:54:19;8.30;;;4.60;;
52458;SDS011;38372;52.902;6.024;2022-08-05T05:56:45;5.88;;;4.40;;
52458;SDS011;38372;52.902;6.024;2022-08-05T05:59:11;5.45;;;4.07;;
52458;SDS011;38372;52.902;6.024;2022-08-05T06:01:37;6.07;;;3.70;;
52458;SDS011;38372;52.902;6.024;2022-08-05T06:04:11;7.80;;;4.10;;
52458;SDS011;38372;52.902;6.024;2022-08-05T06:06:41;7.30;;;3.47;;
52458;SDS011;38372;52.902;6.024;2022-08-05T06:09:08;6.53;;;3.03;;
52458;SDS011;38372;52.902;6.024;2022-08-05T06:11:34;7.38;;;3.00;;
52458;SDS011;38372;52.902;6.024;2022-08-05T06:14:00;4.38;;;3.15;;
52458;SDS011;38372;52.902;6.024;2022-08-05T06:16:26;15.57;;;3.17;;
52458;SDS011;38372;52.902;6.024;2022-08-05T06:18:52;5.63;;;3.00;;
52458;SDS011;38372;52.902;6.024;2022-08-05T06:21:18;8.10;;;3.70;;
52458;SDS011;38372;52.902;6.024;2022-08-05T06:23:44;4.85;;;2.40;;
52458;SDS011;38372;52.902;6.024;2022-08-05T06:26:11;4.47;;;2.78;;
52458;SDS011;38372;52.902;6.024;2022-08-05T06:28:37;4.55;;;3.00;;
52458;SDS011;38372;52.902;6.024;2022-08-05T06:31:03;3.80;;;2.58;;
52458;SDS011;38372;52.902;6.024;2022-08-05T06:33:29;3.72;;;2.35;;
52458;SDS011;38372;52.902;6.024;2022-08-05T06:35:55;5.35;;;1.85;;
52458;SDS011;38372;52.902;6.024;2022-08-05T06:38:20;3.60;;;2.08;;
52458;SDS011;38372;52.902;6.024;2022-08-05T06:40:46;2.88;;;1.60;;
52458;SDS011;38372;52.902;6.024;2022-08-05T06:43:12;1.90;;;1.45;;
52458;SDS011;38372;52.902;6.024;2022-08-05T06:45:38;5.60;;;1.60;;
52458;SDS011;38372;52.902;6.024;2022-08-05T06:48:04;3.78;;;1.52;;
52458;SDS011;38372;52.902;6.024;2022-08-05T06:50:30;4.07;;;1.35;;
52458;SDS011;38372;52.902;6.024;2022-08-05T06:52:55;3.10;;;1.60;;
52458;SDS011;38372;52.902;6.024;2022-08-05T06:55:21;3.63;;;1.80;;
52458;SDS011;38372;52.902;6.024;2022-08-05T06:57:47;5.28;;;1.65;;
52458;SDS011;38372;52.902;6.024;2022-08-05T07:00:13;4.53;;;2.00;;
52458;SDS011;38372;52.902;6.024;2022-08-05T07:02:43;3.83;;;1.80;;
52458;SDS011;38372;52.902;6.024;2022-08-05T07:05:10;3.72;;;2.40;;
52458;SDS011;38372;52.902;6.024;2022-08-05T07:07:37;3.10;;;1.77;;
52458;SDS011;38372;52.902;6.024;2022-08-05T07:10:04;4.93;;;2.55;;
52458;SDS011;38372;52.902;6.024;2022-08-05T07:12:31;3.05;;;1.90;;
52458;SDS011;38372;52.902;6.024;2022-08-05T07:15:15;4.22;;;1.90;;
52458;SDS011;38372;52.902;6.024;2022-08-05T07:17:59;2.47;;;1.52;;
52458;SDS011;38372;52.902;6.024;2022-08-05T07:20:25;4.30;;;1.42;;
52458;SDS011;38372;52.902;6.024;2022-08-05T07:22:51;3.95;;;1.10;;
52458;SDS011;38372;52.902;6.024;2022-08-05T07:25:16;1.75;;;0.90;;
52458;SDS011;38372;52.902;6.024;2022-08-05T07:27:42;4.85;;;1.20;;
52458;SDS011;38372;52.902;6.024;2022-08-05T07:30:08;5.53;;;1.13;;
52458;SDS011;38372;52.902;6.024;2022-08-05T07:32:35;2.30;;;0.88;;
52458;SDS011;38372;52.902;6.024;2022-08-05T07:35:05;6.95;;;1.65;;
52458;SDS011;38372;52.902;6.024;2022-08-05T07:37:35;3.10;;;0.95;;
52458;SDS011;38372;52.902;6.024;2022-08-05T07:40:01;4.18;;;0.73;;
52458;SDS011;38372;52.902;6.024;2022-08-05T07:42:26;4.35;;;1.00;;
52458;SDS011;38372;52.902;6.024;2022-08-05T07:44:52;3.28;;;0.98;;
52458;SDS011;38372;52.902;6.024;2022-08-05T07:47:19;3.35;;;0.90;;
52458;SDS011;38372;52.902;6.024;2022-08-05T07:49:45;3.15;;;0.70;;
52458;SDS011;38372;52.902;6.024;2022-08-05T07:52:11;3.05;;;0.98;;
52458;SDS011;38372;52.902;6.024;2022-08-05T07:54:37;3.30;;;1.13;;
52458;SDS011;38372;52.902;6.024;2022-08-05T07:57:03;2.83;;;0.93;;
52458;SDS011;38372;52.902;6.024;2022-08-05T07:59:29;1.73;;;0.65;;
52458;SDS011;38372;52.902;6.024;2022-08-05T08:01:55;3.00;;;1.10;;
52458;SDS011;38372;52.902;6.024;2022-08-05T08:04:21;2.20;;;0.68;;
52458;SDS011;38372;52.902;6.024;2022-08-05T08:06:47;3.53;;;0.85;;
52458;SDS011;38372;52.902;6.024;2022-08-05T08:09:13;8.48;;;1.75;;
52458;SDS011;38372;52.902;6.024;2022-08-05T08:11:38;4.20;;;0.98;;
52458;SDS011;38372;52.902;6.024;2022-08-05T08:14:04;3.50;;;0.82;;
52458;SDS011;38372;52.902;6.024;2022-08-05T08:16:30;2.90;;;0.77;;
52458;SDS011;38372;52.902;6.024;2022-08-05T08:18:56;3.00;;;0.70;;
52458;SDS011;38372;52.902;6.024;2022-08-05T08:21:22;2.05;;;0.73;;
52458;SDS011;38372;52.902;6.024;2022-08-05T08:23:48;2.35;;;0.85;;
52458;SDS011;38372;52.902;6.024;2022-08-05T08:26:14;5.90;;;0.80;;
52458;SDS011;38372;52.902;6.024;2022-08-05T08:28:39;1.58;;;0.60;;
52458;SDS011;38372;52.902;6.024;2022-08-05T08:31:05;3.33;;;0.90;;
52458;SDS011;38372;52.902;6.024;2022-08-05T08:33:32;1.70;;;0.65;;
52458;SDS011;38372;52.902;6.024;2022-08-05T08:35:58;4.10;;;0.60;;
52458;SDS011;38372;52.902;6.024;2022-08-05T08:38:23;2.33;;;0.63;;
52458;SDS011;38372;52.902;6.024;2022-08-05T08:40:49;2.67;;;0.93;;
52458;SDS011;38372;52.902;6.024;2022-08-05T08:43:15;3.13;;;0.60;;
52458;SDS011;38372;52.902;6.024;2022-08-05T08:45:43;3.03;;;0.95;;
52458;SDS011;38372;52.902;6.024;2022-08-05T08:48:11;2.70;;;0.88;;
52458;SDS011;38372;52.902;6.024;2022-08-05T08:50:40;5.00;;;1.00;;
52458;SDS011;38372;52.902;6.024;2022-08-05T08:53:09;1.92;;;0.75;;
52458;SDS011;38372;52.902;6.024;2022-08-05T08:55:39;4.25;;;0.60;;
52458;SDS011;38372;52.902;6.024;2022-08-05T08:58:05;3.80;;;0.70;;
52458;SDS011;38372;52.902;6.024;2022-08-05T09:00:31;1.42;;;0.43;;
52458;SDS011;38372;52.902;6.024;2022-08-05T09:02:58;2.50;;;0.50;;
52458;SDS011;38372;52.902;6.024;2022-08-05T09:05:24;3.45;;;0.60;;
52458;SDS011;38372;52.902;6.024;2022-08-05T09:07:50;2.00;;;0.50;;
52458;SDS011;38372;52.902;6.024;2022-08-05T09:10:17;2.63;;;0.52;;
52458;SDS011;38372;52.902;6.024;2022-08-05T09:12:44;2.80;;;0.60;;
52458;SDS011;38372;52.902;6.024;2022-08-05T09:15:10;1.83;;;0.60;;
52458;SDS011;38372;52.902;6.024;2022-08-05T09:17:36;3.67;;;0.50;;
52458;SDS011;38372;52.902;6.024;2022-08-05T09:20:03;2.17;;;0.63;;
52458;SDS011;38372;52.902;6.024;2022-08-05T09:22:37;1.48;;;0.40;;
52458;SDS011;38372;52.902;6.024;2022-08-05T09:25:38;2.00;;;0.35;;
52458;SDS011;38372;52.902;6.024;2022-08-05T09:31:04;3.03;;;0.40;;
52458;SDS011;38372;52.902;6.024;2022-08-05T09:33:44;1.92;;;0.32;;
52458;SDS011;38372;52.902;6.024;2022-08-05T09:36:14;1.85;;;0.50;;
52458;SDS011;38372;52.902;6.024;2022-08-05T09:38:53;1.20;;;0.30;;
52458;SDS011;38372;52.902;6.024;2022-08-05T09:41:22;1.40;;;0.25;;
52458;SDS011;38372;52.902;6.024;2022-08-05T09:43:50;1.52;;;0.32;;
52458;SDS011;38372;52.902;6.024;2022-08-05T09:48:57;1.15;;;0.20;;
52458;SDS011;38372;52.902;6.024;2022-08-05T09:51:35;0.88;;;0.25;;
52458;SDS011;38372;52.902;6.024;2022-08-05T09:54:04;1.38;;;0.30;;
52458;SDS011;38372;52.902;6.024;2022-08-05T09:56:37;2.97;;;0.40;;
52458;SDS011;38372;52.902;6.024;2022-08-05T09:59:11;1.40;;;0.30;;
52458;SDS011;38372;52.902;6.024;2022-08-05T10:01:41;0.80;;;0.30;;
52458;SDS011;38372;52.902;6.024;2022-08-05T10:04:09;0.93;;;0.20;;
52458;SDS011;38372;52.902;6.024;2022-08-05T10:06:53;1.70;;;0.52;;
52458;SDS011;38372;52.902;6.024;2022-08-05T10:09:20;1.75;;;0.10;;
52458;SDS011;38372;52.902;6.024;2022-08-05T10:11:49;0.65;;;0.35;;
52458;SDS011;38372;52.902;6.024;2022-08-05T10:14:26;0.50;;;0.20;;
52458;SDS011;38372;52.902;6.024;2022-08-05T10:16:55;1.35;;;0.20;;
52458;SDS011;38372;52.902;6.024;2022-08-05T10:19:23;1.80;;;0.35;;
52458;SDS011;38372;52.902;6.024;2022-08-05T10:21:51;0.57;;;0.20;;
52458;SDS011;38372;52.902;6.024;2022-08-05T10:24:18;4.03;;;0.45;;
52458;SDS011;38372;52.902;6.024;2022-08-05T10:26:45;1.38;;;0.20;;
52458;SDS011;38372;52.902;6.024;2022-08-05T10:29:14;1.55;;;0.30;;
52458;SDS011;38372;52.902;6.024;2022-08-05T10:31:40;1.67;;;0.50;;
52458;SDS011;38372;52.902;6.024;2022-08-05T10:34:06;1.73;;;0.20;;
52458;SDS011;38372;52.902;6.024;2022-08-05T10:36:34;1.10;;;0.30;;
52458;SDS011;38372;52.902;6.024;2022-08-05T10:39:03;1.13;;;0.28;;
52458;SDS011;38372;52.902;6.024;2022-08-05T10:41:35;2.30;;;0.30;;
52458;SDS011;38372;52.902;6.024;2022-08-05T10:44:22;5.53;;;0.30;;
52458;SDS011;38372;52.902;6.024;2022-08-05T10:46:49;2.92;;;0.32;;
52458;SDS011;38372;52.902;6.024;2022-08-05T10:49:18;1.27;;;0.30;;
52458;SDS011;38372;52.902;6.024;2022-08-05T10:51:49;1.25;;;0.20;;
52458;SDS011;38372;52.902;6.024;2022-08-05T10:54:21;1.27;;;0.20;;
52458;SDS011;38372;52.902;6.024;2022-08-05T10:56:51;3.13;;;0.30;;
52458;SDS011;38372;52.902;6.024;2022-08-05T10:59:28;3.58;;;0.47;;
52458;SDS011;38372;52.902;6.024;2022-08-05T11:02:05;1.80;;;0.30;;
52458;SDS011;38372;52.902;6.024;2022-08-05T11:04:41;2.88;;;0.40;;
52458;SDS011;38372;52.902;6.024;2022-08-05T11:07:08;1.08;;;0.30;;
52458;SDS011;38372;52.902;6.024;2022-08-05T11:17:41;2.53;;;0.60;;
52458;SDS011;38372;52.902;6.024;2022-08-05T11:22:56;0.85;;;0.20;;
52458;SDS011;38372;52.902;6.024;2022-08-05T11:25:29;2.08;;;0.20;;
52458;SDS011;38372;52.902;6.024;2022-08-05T11:36:15;1.77;;;0.30;;
52458;SDS011;38372;52.902;6.024;2022-08-05T11:41:20;1.58;;;0.20;;
52458;SDS011;38372;52.902;6.024;2022-08-05T11:44:00;1.73;;;0.20;;
52458;SDS011;38372;52.902;6.024;2022-08-05T11:48:56;2.25;;;0.32;;
52458;SDS011;38372;52.902;6.024;2022-08-05T11:51:23;0.85;;;0.20;;
52458;SDS011;38372;52.902;6.024;2022-08-05T11:53:51;1.48;;;0.28;;
52458;SDS011;38372;52.902;6.024;2022-08-05T11:56:18;1.30;;;0.22;;
52458;SDS011;38372;52.902;6.024;2022-08-05T11:58:45;3.13;;;0.55;;
52458;SDS011;38372;52.902;6.024;2022-08-05T12:03:50;2.40;;;0.38;;
52458;SDS011;38372;52.902;6.024;2022-08-05T12:06:21;3.83;;;0.38;;
52458;SDS011;38372;52.902;6.024;2022-08-05T12:08:49;2.88;;;0.40;;
52458;SDS011;38372;52.902;6.024;2022-08-05T12:11:20;2.25;;;0.40;;
52458;SDS011;38372;52.902;6.024;2022-08-05T12:16:32;1.65;;;0.43;;
52458;SDS011;38372;52.902;6.024;2022-08-05T12:19:01;2.63;;;0.38;;
52458;SDS011;38372;52.902;6.024;2022-08-05T12:21:29;2.05;;;0.40;;
52458;SDS011;38372;52.902;6.024;2022-08-05T12:24:04;0.30;;;0.25;;
52458;SDS011;38372;52.902;6.024;2022-08-05T12:26:53;2.03;;;0.50;;
52458;SDS011;38372;52.902;6.024;2022-08-05T12:29:26;1.27;;;0.43;;
52458;SDS011;38372;52.902;6.024;2022-08-05T12:31:59;1.67;;;0.30;;
52458;SDS011;38372;52.902;6.024;2022-08-05T12:34:32;3.10;;;0.55;;
52458;SDS011;38372;52.902;6.024;2022-08-05T12:37:04;1.80;;;0.43;;
52458;SDS011;38372;52.902;6.024;2022-08-05T12:39:37;1.95;;;0.40;;
52458;SDS011;38372;52.902;6.024;2022-08-05T12:42:11;1.38;;;0.40;;
52458;SDS011;38372;52.902;6.024;2022-08-05T12:44:42;2.67;;;0.57;;
52458;SDS011;38372;52.902;6.024;2022-08-05T12:47:13;1.25;;;0.40;;
52458;SDS011;38372;52.902;6.024;2022-08-05T12:49:51;1.85;;;0.38;;
52458;SDS011;38372;52.902;6.024;2022-08-05T12:52:18;3.92;;;0.40;;
52458;SDS011;38372;52.902;6.024;2022-08-05T12:54:46;2.78;;;0.40;;
52458;SDS011;38372;52.902;6.024;2022-08-05T12:57:13;4.72;;;0.52;;
52458;SDS011;38372;52.902;6.024;2022-08-05T12:59:44;2.33;;;0.40;;
52458;SDS011;38372;52.902;6.024;2022-08-05T13:02:18;0.68;;;0.25;;
52458;SDS011;38372;52.902;6.024;2022-08-05T13:04:47;3.53;;;0.40;;
52458;SDS011;38372;52.902;6.024;2022-08-05T13:07:16;1.10;;;0.30;;
52458;SDS011;38372;52.902;6.024;2022-08-05T13:09:55;1.25;;;0.30;;
52458;SDS011;38372;52.902;6.024;2022-08-05T13:12:25;1.10;;;0.30;;
52458;SDS011;38372;52.902;6.024;2022-08-05T13:14:58;5.20;;;0.40;;
52458;SDS011;38372;52.902;6.024;2022-08-05T13:17:26;2.00;;;0.60;;
52458;SDS011;38372;52.902;6.024;2022-08-05T13:22:38;2.60;;;0.40;;
52458;SDS011;38372;52.902;6.024;2022-08-05T13:25:09;1.30;;;0.30;;
52458;SDS011;38372;52.902;6.024;2022-08-05T13:27:46;1.98;;;0.40;;
52458;SDS011;38372;52.902;6.024;2022-08-05T13:30:14;1.15;;;0.30;;
52458;SDS011;38372;52.902;6.024;2022-08-05T13:32:41;1.40;;;0.30;;
52458;SDS011;38372;52.902;6.024;2022-08-05T13:35:11;3.90;;;0.77;;
52458;SDS011;38372;52.902;6.024;2022-08-05T13:37:38;4.40;;;1.15;;
52458;SDS011;38372;52.902;6.024;2022-08-05T13:40:04;2.80;;;0.80;;
52458;SDS011;38372;52.902;6.024;2022-08-05T13:42:31;2.08;;;0.80;;
52458;SDS011;38372;52.902;6.024;2022-08-05T13:44:57;10.48;;;1.58;;
52458;SDS011;38372;52.902;6.024;2022-08-05T13:47:23;3.40;;;1.05;;
52458;SDS011;38372;52.902;6.024;2022-08-05T13:49:49;5.95;;;1.20;;
52458;SDS011;38372;52.902;6.024;2022-08-05T13:52:22;3.30;;;0.80;;
52458;SDS011;38372;52.902;6.024;2022-08-05T13:54:54;3.15;;;0.60;;
52458;SDS011;38372;52.902;6.024;2022-08-05T13:57:20;4.28;;;0.60;;
52458;SDS011;38372;52.902;6.024;2022-08-05T13:59:47;3.47;;;0.40;;
52458;SDS011;38372;52.902;6.024;2022-08-05T14:02:13;1.92;;;0.50;;
52458;SDS011;38372;52.902;6.024;2022-08-05T14:04:41;3.10;;;0.43;;
52458;SDS011;38372;52.902;6.024;2022-08-05T14:07:37;4.88;;;0.50;;
52458;SDS011;38372;52.902;6.024;2022-08-05T14:12:39;3.08;;;0.60;;
52458;SDS011;38372;52.902;6.024;2022-08-05T14:15:06;0.45;;;0.25;;
52458;SDS011;38372;52.902;6.024;2022-08-05T14:17:32;2.50;;;0.50;;
52458;SDS011;38372;52.902;6.024;2022-08-05T14:19:58;2.13;;;0.95;;
52458;SDS011;38372;52.902;6.024;2022-08-05T14:22:24;1.60;;;0.60;;
52458;SDS011;38372;52.902;6.024;2022-08-05T14:24:51;3.15;;;0.40;;
52458;SDS011;38372;52.902;6.024;2022-08-05T14:27:17;2.58;;;0.57;;
52458;SDS011;38372;52.902;6.024;2022-08-05T14:29:43;1.73;;;0.32;;
52458;SDS011;38372;52.902;6.024;2022-08-05T14:32:09;2.25;;;0.50;;
52458;SDS011;38372;52.902;6.024;2022-08-05T14:34:35;5.30;;;0.50;;
52458;SDS011;38372;52.902;6.024;2022-08-05T14:37:01;2.83;;;0.30;;
52458;SDS011;38372;52.902;6.024;2022-08-05T14:39:28;2.30;;;0.40;;
52458;SDS011;38372;52.902;6.024;2022-08-05T14:41:54;1.02;;;0.40;;
52458;SDS011;38372;52.902;6.024;2022-08-05T14:44:20;1.02;;;0.30;;
52458;SDS011;38372;52.902;6.024;2022-08-05T14:46:45;1.88;;;0.43;;
52458;SDS011;38372;52.902;6.024;2022-08-05T14:49:11;1.00;;;0.40;;
52458;SDS011;38372;52.902;6.024;2022-08-05T14:51:37;0.43;;;0.20;;
52458;SDS011;38372;52.902;6.024;2022-08-05T14:54:04;3.50;;;0.73;;
52458;SDS011;38372;52.902;6.024;2022-08-05T14:56:31;3.35;;;0.43;;
52458;SDS011;38372;52.902;6.024;2022-08-05T14:58:58;1.92;;;0.55;;
52458;SDS011;38372;52.902;6.024;2022-08-05T15:01:24;1.05;;;0.30;;
52458;SDS011;38372;52.902;6.024;2022-08-05T15:03:49;0.65;;;0.20;;
52458;SDS011;38372;52.902;6.024;2022-08-05T15:06:15;3.17;;;0.40;;
52458;SDS011;38372;52.902;6.024;2022-08-05T15:08:41;2.00;;;0.30;;
52458;SDS011;38372;52.902;6.024;2022-08-05T15:11:08;4.03;;;0.40;;
52458;SDS011;38372;52.902;6.024;2022-08-05T15:13:34;4.65;;;0.40;;
52458;SDS011;38372;52.902;6.024;2022-08-05T15:16:00;0.80;;;0.40;;
52458;SDS011;38372;52.902;6.024;2022-08-05T15:18:26;1.55;;;0.35;;
52458;SDS011;38372;52.902;6.024;2022-08-05T15:20:52;2.95;;;0.50;;
52458;SDS011;38372;52.902;6.024;2022-08-05T15:23:21;1.52;;;0.50;;
52458;SDS011;38372;52.902;6.024;2022-08-05T15:25:48;2.08;;;0.50;;
52458;SDS011;38372;52.902;6.024;2022-08-05T15:28:14;1.92;;;0.40;;
52458;SDS011;38372;52.902;6.024;2022-08-05T15:30:40;2.72;;;0.40;;
52458;SDS011;38372;52.902;6.024;2022-08-05T15:33:06;2.92;;;0.40;;
52458;SDS011;38372;52.902;6.024;2022-08-05T15:35:32;2.47;;;0.30;;
52458;SDS011;38372;52.902;6.024;2022-08-05T15:37:58;2.30;;;0.40;;
52458;SDS011;38372;52.902;6.024;2022-08-05T15:40:24;1.45;;;0.40;;
52458;SDS011;38372;52.902;6.024;2022-08-05T15:42:50;1.38;;;0.30;;
52458;SDS011;38372;52.902;6.024;2022-08-05T15:45:16;0.77;;;0.30;;
52458;SDS011;38372;52.902;6.024;2022-08-05T15:47:42;1.35;;;0.20;;
52458;SDS011;38372;52.902;6.024;2022-08-05T15:50:09;2.15;;;0.40;;
52458;SDS011;38372;52.902;6.024;2022-08-05T15:52:36;0.52;;;0.30;;